Linha Nova, Brazil
Current Conditions -  °F | °C
As of 1:00 PM on Thursday 18 Dec 2014 (Local Time) from SBCO Reporting Station
Few Clouds Few Clouds  
Wind Chill: 82°   Ceiling: Unl
Heat Index: 82°   Visibility: 6mi
Dew Point: 59°   Wind: 6mph
Humidity: 45%   Direction: 180°S
Pressure: 29.85"   Gusts: NA
Location:  29.47°S, 51.2°W
Report Text: SBCO 181500Z 18005KT 9999 FEW030 28/15 Q1011
Loading
Personal Weather Stations






























Interactive Weather Map New forecast layout! Learn more

10-Day Weather Forecast

Advertisements
Track Severe Weather on mobile